Time;durP1;ratioP1;P1;durP2;ratioP2;P2;SDS_P1;SDS_P2;PMS_P1;PMS_P2;Temp;Humidity;BMP_temperature;BMP_pressure;BME280_temperature;BME280_humidity;BME280_pressure;Samples;Min_cycle;Max_cycle;Signal;HPM_P1;HPM_P2
2021/07/22 00:02:20;;;;;;;16.48;11.82;;;16.50;99.90;;;;;;4993167;28;20456;-72
2021/07/22 00:04:46;;;;;;;16.17;11.50;;;16.50;99.90;;;;;;4992361;28;20425;-74
2021/07/22 00:07:12;;;;;;;14.23;11.02;;;16.60;99.90;;;;;;4993035;28;20101;-72
2021/07/22 00:09:39;;;;;;;15.55;10.73;;;16.60;99.90;;;;;;4994082;28;20076;-73
2021/07/22 00:12:09;;;;;;;18.30;11.80;;;16.60;99.90;;;;;;4994778;28;20022;-73
2021/07/22 00:14:35;;;;;;;13.35;10.95;;;16.60;99.90;;;;;;4993165;28;20044;-71
2021/07/22 00:17:05;;;;;;;16.27;10.40;;;16.70;99.90;;;;;;4975786;28;20369;-72
2021/07/22 00:19:31;;;;;;;15.18;11.93;;;16.60;99.90;;;;;;4992335;28;20034;-72
2021/07/22 00:21:58;;;;;;;16.08;11.40;;;16.80;99.90;;;;;;4992663;28;20029;-74
2021/07/22 00:24:25;;;;;;;15.27;11.00;;;16.80;99.90;;;;;;4992083;28;20029;-74
2021/07/22 00:26:51;;;;;;;14.93;11.25;;;16.70;99.90;;;;;;4993135;28;20093;-73
2021/07/22 00:29:17;;;;;;;15.93;11.07;;;16.70;99.90;;;;;;4992087;28;20031;-74
2021/07/22 00:31:42;;;;;;;16.30;11.32;;;16.70;99.90;;;;;;4992458;28;20057;-72
2021/07/22 00:34:08;;;;;;;16.08;10.95;;;16.60;99.90;;;;;;4992585;28;20637;-73
2021/07/22 00:36:34;;;;;;;17.73;11.60;;;16.70;99.90;;;;;;4991257;28;20023;-73
2021/07/22 00:38:59;;;;;;;15.68;12.20;;;16.70;99.90;;;;;;4992551;28;20084;-73
2021/07/22 00:41:25;;;;;;;18.48;12.38;;;16.60;99.90;;;;;;4992510;28;20030;-73
2021/07/22 00:43:50;;;;;;;16.25;12.38;;;16.60;99.90;;;;;;4974690;28;20049;-73
2021/07/22 00:46:16;;;;;;;16.98;13.05;;;16.50;99.90;;;;;;4991929;28;20022;-73
2021/07/22 00:48:42;;;;;;;18.27;13.48;;;16.50;99.90;;;;;;4992588;28;20392;-73
2021/07/22 00:51:08;;;;;;;20.80;13.30;;;16.50;99.90;;;;;;4992110;28;20084;-73
2021/07/22 00:53:37;;;;;;;19.50;13.57;;;16.40;99.90;;;;;;4975012;28;20041;-73
2021/07/22 00:56:04;;;;;;;16.75;13.02;;;16.40;99.90;;;;;;4974595;28;20026;-73
2021/07/22 00:58:30;;;;;;;13.77;11.35;;;16.30;99.90;;;;;;4974834;28;20031;-73
2021/07/22 01:00:56;;;;;;;13.35;10.98;;;16.20;99.90;;;;;;5006522;28;20547;-72
2021/07/22 01:03:21;;;;;;;16.83;11.68;;;16.30;99.90;;;;;;5011916;28;20057;-73
2021/07/22 01:05:47;;;;;;;16.10;12.60;;;16.30;99.90;;;;;;5010663;28;20057;-73
2021/07/22 01:08:12;;;;;;;15.40;12.20;;;16.30;99.90;;;;;;5011733;28;20022;-73
2021/07/22 01:10:38;;;;;;;19.33;13.23;;;16.30;99.90;;;;;;5011856;28;20468;-73
2021/07/22 01:13:04;;;;;;;18.23;12.23;;;16.30;99.90;;;;;;5012130;28;20030;-72
2021/07/22 01:15:31;;;;;;;17.27;12.15;;;16.30;99.90;;;;;;5011250;28;20108;-73
2021/07/22 01:17:57;;;;;;;16.63;12.30;;;16.20;99.90;;;;;;5012001;28;20030;-73
2021/07/22 01:20:25;;;;;;;18.65;12.85;;;16.20;99.90;;;;;;4993637;28;20072;-72
2021/07/22 01:22:53;;;;;;;17.63;12.68;;;16.10;99.90;;;;;;5011742;28;20041;-72
2021/07/22 01:25:20;;;;;;;20.88;13.00;;;16.10;99.90;;;;;;5010271;28;20037;-73
2021/07/22 01:27:46;;;;;;;19.83;13.13;;;16.00;99.90;;;;;;5011748;28;20033;-72
2021/07/22 01:30:13;;;;;;;15.32;11.30;;;16.00;99.90;;;;;;5003439;28;20057;-73
2021/07/22 01:32:40;;;;;;;15.77;11.55;;;16.00;99.90;;;;;;4994505;28;20084;-74
2021/07/22 01:35:07;;;;;;;18.05;11.80;;;15.90;99.90;;;;;;4993149;28;20041;-74
2021/07/22 01:37:33;;;;;;;15.95;12.80;;;15.90;99.90;;;;;;4994001;28;20030;-74
2021/07/22 01:39:59;;;;;;;17.00;12.52;;;15.90;99.90;;;;;;4993554;28;20057;-74
2021/07/22 01:42:24;;;;;;;18.30;12.20;;;15.80;99.90;;;;;;4993175;28;20065;-74
2021/07/22 01:44:50;;;;;;;16.77;12.65;;;15.80;99.90;;;;;;4992733;28;20050;-73
2021/07/22 01:47:16;;;;;;;16.15;11.27;;;15.70;99.90;;;;;;4993829;28;20033;-73
2021/07/22 01:49:42;;;;;;;21.13;13.23;;;15.70;99.90;;;;;;4995171;28;20034;-75
2021/07/22 01:52:07;;;;;;;16.70;12.95;;;15.70;99.90;;;;;;4977739;28;20400;-74
2021/07/22 01:54:33;;;;;;;19.52;13.63;;;15.50;99.90;;;;;;4996614;28;20543;-73
2021/07/22 01:57:00;;;;;;;17.55;12.77;;;15.60;99.90;;;;;;4998072;28;20041;-73
2021/07/22 01:59:27;;;;;;;18.15;13.32;;;15.50;99.90;;;;;;4997863;28;20435;-73
2021/07/22 02:01:54;;;;;;;18.50;12.93;;;15.40;99.90;;;;;;4997102;28;20030;-74
2021/07/22 02:04:20;;;;;;;17.25;14.02;;;15.30;99.90;;;;;;4997494;28;20038;-75
2021/07/22 02:06:45;;;;;;;18.58;14.10;;;15.30;99.90;;;;;;4997575;28;20464;-73
2021/07/22 02:09:11;;;;;;;17.02;12.95;;;15.30;99.90;;;;;;4997026;28;20033;-74
2021/07/22 02:11:37;;;;;;;19.77;13.70;;;15.30;99.90;;;;;;4995562;28;20377;-73
2021/07/22 02:14:02;;;;;;;20.92;13.32;;;15.30;99.90;;;;;;4995481;28;20373;-72
2021/07/22 02:16:28;;;;;;;20.52;13.48;;;15.30;99.90;;;;;;4994465;28;20034;-73
2021/07/22 02:18:54;;;;;;;16.10;12.05;;;15.30;99.90;;;;;;4995248;28;20038;-73
2021/07/22 02:21:21;;;;;;;18.23;12.30;;;15.30;99.90;;;;;;4994756;28;20053;-73
2021/07/22 02:23:47;;;;;;;13.48;11.35;;;15.40;99.90;;;;;;4995155;28;20023;-72
2021/07/22 02:26:12;;;;;;;18.65;12.13;;;15.30;99.90;;;;;;4976763;28;20388;-73
2021/07/22 02:28:38;;;;;;;20.83;13.88;;;15.30;99.90;;;;;;4994153;28;20113;-72
2021/07/22 02:31:04;;;;;;;21.55;13.18;;;15.20;99.90;;;;;;4994902;28;20030;-72
2021/07/22 02:33:29;;;;;;;22.13;13.52;;;15.20;99.90;;;;;;4994745;28;20030;-72
2021/07/22 02:35:58;;;;;;;19.02;13.65;;;15.20;99.90;;;;;;4993874;28;20037;-72
2021/07/22 02:38:24;;;;;;;22.23;13.88;;;15.20;99.90;;;;;;4994598;28;20036;-72
2021/07/22 02:40:49;;;;;;;20.75;12.75;;;15.20;99.90;;;;;;4977095;28;20112;-72
2021/07/22 02:43:15;;;;;;;18.08;13.75;;;15.20;99.90;;;;;;4994598;28;20053;-73
2021/07/22 02:45:41;;;;;;;27.02;14.43;;;15.10;99.90;;;;;;4993819;28;20073;-72
2021/07/22 02:48:07;;;;;;;21.20;14.68;;;15.00;99.90;;;;;;4994610;28;20030;-73
2021/07/22 02:50:33;;;;;;;21.45;14.15;;;15.00;99.90;;;;;;4977089;28;20514;-73
2021/07/22 02:53:03;;;;;;;22.13;14.75;;;14.90;99.90;;;;;;4995103;28;20034;-73
2021/07/22 02:55:28;;;;;;;28.45;15.50;;;15.00;99.90;;;;;;4977302;28;20681;-74
2021/07/22 02:57:54;;;;;;;19.38;14.80;;;15.00;99.90;;;;;;4977972;28;20113;-73
2021/07/22 03:00:20;;;;;;;21.45;13.77;;;15.00;99.90;;;;;;4994507;28;20362;-72
2021/07/22 03:02:45;;;;;;;20.83;15.30;;;14.90;99.90;;;;;;4994181;28;20505;-73
2021/07/22 03:05:11;;;;;;;23.92;15.90;;;14.80;99.90;;;;;;4976064;28;20019;-73
2021/07/22 03:07:37;;;;;;;22.25;14.75;;;14.80;99.90;;;;;;4994388;28;20027;-73
2021/07/22 03:10:03;;;;;;;24.95;15.18;;;14.90;99.90;;;;;;4994132;28;20104;-73
2021/07/22 03:12:29;;;;;;;21.60;14.32;;;14.90;99.90;;;;;;4994071;28;20026;-73
2021/07/22 03:14:54;;;;;;;20.85;14.82;;;14.80;99.90;;;;;;4993283;28;20036;-72
2021/07/22 03:17:20;;;;;;;18.05;14.32;;;14.80;99.90;;;;;;4994211;28;20023;-72
2021/07/22 03:19:46;;;;;;;23.63;15.13;;;14.80;99.90;;;;;;4993712;28;20026;-72
2021/07/22 03:22:14;;;;;;;18.40;14.57;;;14.80;99.90;;;;;;4993878;28;20524;-73
2021/07/22 03:24:39;;;;;;;21.40;15.38;;;14.80;99.90;;;;;;4993163;28;20452;-72
2021/07/22 03:27:05;;;;;;;24.00;15.05;;;14.80;99.90;;;;;;4993935;28;20062;-72
2021/07/22 03:29:32;;;;;;;19.88;15.63;;;14.80;99.90;;;;;;4993536;28;20030;-73
2021/07/22 03:31:57;;;;;;;22.15;14.50;;;14.80;99.90;;;;;;4976277;28;20106;-73
2021/07/22 03:34:23;;;;;;;19.48;14.38;;;14.80;99.90;;;;;;4975802;28;20725;-73
2021/07/22 03:36:48;;;;;;;18.10;13.52;;;14.80;99.90;;;;;;4993230;28;20026;-73
2021/07/22 03:39:14;;;;;;;21.80;13.23;;;14.80;99.90;;;;;;4993789;28;20041;-73
2021/07/22 03:41:47;;;;;;;21.63;13.90;;;14.70;99.90;;;;;;4993708;28;20440;-73
2021/07/22 03:44:14;;;;;;;20.27;13.00;;;14.80;99.90;;;;;;4993276;28;20038;-73
2021/07/22 03:46:39;;;;;;;16.88;12.75;;;14.80;99.90;;;;;;4975439;28;20145;-73
2021/07/22 03:49:05;;;;;;;20.88;13.52;;;14.80;99.90;;;;;;4993508;28;20030;-73
2021/07/22 03:51:31;;;;;;;18.33;13.10;;;14.80;99.90;;;;;;4993127;28;20076;-73
2021/07/22 03:53:56;;;;;;;16.45;12.75;;;14.90;99.90;;;;;;4993213;28;20121;-73
2021/07/22 03:56:22;;;;;;;18.13;13.65;;;14.80;99.90;;;;;;4993200;28;20034;-73
2021/07/22 03:58:47;;;;;;;18.00;13.70;;;14.90;99.90;;;;;;4993224;28;20033;-73
2021/07/22 04:01:13;;;;;;;19.35;13.68;;;14.80;99.90;;;;;;4993164;28;20034;-72
2021/07/22 04:03:39;;;;;;;24.42;14.77;;;14.70;99.90;;;;;;4993407;28;20030;-73
2021/07/22 04:06:04;;;;;;;28.77;14.93;;;14.70;99.90;;;;;;4992781;28;20041;-73
2021/07/22 04:08:30;;;;;;;20.08;14.35;;;14.70;99.90;;;;;;4993279;28;20019;-73
2021/07/22 04:10:56;;;;;;;20.38;14.30;;;14.70;99.90;;;;;;4993293;28;20026;-72
2021/07/22 04:13:22;;;;;;;28.83;17.05;;;14.70;99.90;;;;;;4992864;28;20436;-72
2021/07/22 04:15:47;;;;;;;20.45;14.98;;;14.70;99.90;;;;;;4990547;28;20033;-71
2021/07/22 04:18:13;;;;;;;24.30;15.98;;;14.70;99.90;;;;;;5010605;28;20384;-72
2021/07/22 04:20:39;;;;;;;18.92;14.25;;;14.80;99.90;;;;;;5011841;28;20029;-71
2021/07/22 04:23:04;;;;;;;22.10;14.50;;;14.80;99.90;;;;;;5011982;28;20030;-71
2021/07/22 04:25:30;;;;;;;22.77;14.40;;;14.80;99.90;;;;;;5011477;28;20021;-72
2021/07/22 04:27:56;;;;;;;18.98;12.75;;;14.80;99.90;;;;;;4994189;28;20044;-71
2021/07/22 04:30:22;;;;;;;19.45;13.88;;;14.80;99.90;;;;;;5002437;28;20097;-72
2021/07/22 04:32:47;;;;;;;17.48;13.73;;;15.00;99.90;;;;;;4992882;28;20551;-72
2021/07/22 04:35:14;;;;;;;19.35;13.82;;;15.00;99.90;;;;;;5005061;28;20026;-72
2021/07/22 04:37:39;;;;;;;27.38;14.20;;;15.10;99.90;;;;;;5011557;28;20041;-72
2021/07/22 04:40:06;;;;;;;19.23;14.27;;;15.10;99.90;;;;;;5012027;28;20145;-72
2021/07/22 04:42:33;;;;;;;20.02;14.60;;;15.10;99.90;;;;;;5012288;28;20373;-71
2021/07/22 04:44:59;;;;;;;22.00;15.10;;;15.10;99.90;;;;;;4995118;28;20160;-71
2021/07/22 04:47:24;;;;;;;19.05;14.40;;;15.00;99.90;;;;;;5013510;28;20042;-71
2021/07/22 04:49:50;;;;;;;21.98;13.93;;;15.10;99.90;;;;;;5013923;28;20494;-74
2021/07/22 04:52:16;;;;;;;23.00;15.30;;;15.10;99.90;;;;;;5012338;28;20085;-73
2021/07/22 04:54:41;;;;;;;27.05;14.18;;;15.10;99.90;;;;;;5011733;28;20037;-74
2021/07/22 04:57:07;;;;;;;24.25;15.48;;;15.10;99.90;;;;;;5012003;28;20050;-74
2021/07/22 04:59:33;;;;;;;18.58;15.00;;;15.10;99.90;;;;;;5011573;28;20026;-73
2021/07/22 05:01:58;;;;;;;23.45;15.52;;;15.20;99.90;;;;;;5011377;28;20088;-74
2021/07/22 05:04:24;;;;;;;23.25;15.30;;;15.20;99.90;;;;;;5010914;28;20140;-74
2021/07/22 05:06:49;;;;;;;22.73;15.10;;;15.30;99.90;;;;;;5010964;28;20026;-73
2021/07/22 05:09:15;;;;;;;21.25;14.48;;;15.40;99.90;;;;;;5009528;28;20026;-70
2021/07/22 05:11:41;;;;;;;21.40;14.55;;;15.40;99.90;;;;;;4997821;28;20481;-71
2021/07/22 05:14:06;;;;;;;16.98;13.40;;;15.40;99.90;;;;;;4991916;28;20026;-71
2021/07/22 05:16:33;;;;;;;20.10;14.15;;;15.50;99.90;;;;;;4991431;28;20027;-71
2021/07/22 05:18:59;;;;;;;18.30;14.55;;;15.40;99.90;;;;;;4991709;28;20034;-71
2021/07/22 05:21:25;;;;;;;20.83;14.15;;;15.50;99.90;;;;;;4991538;28;20169;-70
2021/07/22 05:23:50;;;;;;;18.95;13.32;;;15.60;99.90;;;;;;4992020;28;20035;-70
2021/07/22 05:26:16;;;;;;;17.63;13.73;;;15.70;99.90;;;;;;4990857;28;20023;-70
2021/07/22 05:28:42;;;;;;;18.35;13.77;;;15.80;99.90;;;;;;4991318;28;20030;-71
2021/07/22 05:31:10;;;;;;;18.90;12.98;;;15.80;99.90;;;;;;5011449;28;20081;-72
2021/07/22 05:33:37;;;;;;;22.00;12.68;;;15.70;99.90;;;;;;5013957;28;20079;-70
2021/07/22 05:36:04;;;;;;;17.38;12.07;;;15.60;99.90;;;;;;4995744;28;20112;-70
2021/07/22 05:38:34;;;;;;;19.20;12.48;;;15.70;99.90;;;;;;5012590;28;20022;-72
2021/07/22 05:41:04;;;;;;;19.05;12.93;;;15.80;99.90;;;;;;5012406;28;20037;-71
2021/07/22 05:43:30;;;;;;;14.85;12.27;;;15.80;99.90;;;;;;5010950;28;20022;-71
2021/07/22 05:45:56;;;;;;;16.38;12.45;;;16.00;99.90;;;;;;4998163;28;20022;-70
2021/07/22 05:48:22;;;;;;;16.25;12.88;;;15.90;99.90;;;;;;4977923;28;20029;-71
2021/07/22 05:50:51;;;;;;;17.35;12.75;;;16.00;99.90;;;;;;5000164;28;20488;-70
2021/07/22 05:53:18;;;;;;;23.52;12.98;;;16.10;99.90;;;;;;5006048;28;20547;-70
2021/07/22 05:55:43;;;;;;;43.92;14.63;;;16.10;99.90;;;;;;4983464;28;20023;-70
2021/07/22 05:58:09;;;;;;;26.40;12.93;;;16.10;99.90;;;;;;4990055;28;20085;-69
2021/07/22 06:00:35;;;;;;;18.17;12.35;;;16.10;99.90;;;;;;5014991;28;20026;-70
2021/07/22 06:03:04;;;;;;;17.52;12.65;;;16.20;99.90;;;;;;5014343;28;20037;-69
2021/07/22 06:05:30;;;;;;;18.38;12.73;;;16.30;99.90;;;;;;5010144;28;20021;-71
2021/07/22 06:07:57;;;;;;;24.08;12.57;;;16.10;99.90;;;;;;5006218;28;20025;-70
2021/07/22 06:10:22;;;;;;;20.88;12.02;;;16.30;99.90;;;;;;5014331;28;20022;-71
2021/07/22 06:12:48;;;;;;;19.73;12.30;;;16.40;99.90;;;;;;5014209;28;20110;-71
2021/07/22 06:15:14;;;;;;;17.23;11.82;;;16.50;99.90;;;;;;5013711;28;20111;-71
2021/07/22 06:17:40;;;;;;;16.42;11.98;;;16.70;99.90;;;;;;5014738;28;20431;-71
2021/07/22 06:20:07;;;;;;;15.18;12.82;;;16.90;99.90;;;;;;5014504;28;20061;-69
2021/07/22 06:22:35;;;;;;;16.20;11.90;;;16.80;99.90;;;;;;5013913;28;20037;-69
2021/07/22 06:25:01;;;;;;;15.05;11.75;;;16.90;99.90;;;;;;5013861;28;20054;-71
2021/07/22 06:27:26;;;;;;;16.25;11.48;;;17.00;99.90;;;;;;5014330;28;20507;-70
2021/07/22 06:29:52;;;;;;;17.25;11.98;;;17.10;99.90;;;;;;5014248;28;20028;-69
2021/07/22 06:32:18;;;;;;;19.92;11.95;;;17.10;99.90;;;;;;5013477;28;20038;-70
2021/07/22 06:34:43;;;;;;;19.38;11.80;;;17.20;99.90;;;;;;5000270;28;20038;-68
2021/07/22 06:37:09;;;;;;;14.23;11.40;;;17.40;99.90;;;;;;4994399;28;20022;-69
2021/07/22 06:39:35;;;;;;;16.73;12.15;;;17.40;99.90;;;;;;4994192;28;20038;-70
2021/07/22 06:42:02;;;;;;;21.40;13.10;;;17.50;99.90;;;;;;4994337;28;20023;-68
2021/07/22 06:44:28;;;;;;;21.42;12.48;;;17.60;99.90;;;;;;4994345;28;20128;-70
2021/07/22 06:46:54;;;;;;;18.35;11.75;;;17.90;99.90;;;;;;4994449;28;20168;-68
2021/07/22 06:49:20;;;;;;;14.60;10.68;;;17.90;99.90;;;;;;5004500;28;20094;-69
2021/07/22 06:51:51;;;;;;;16.73;12.18;;;18.00;99.90;;;;;;5013890;28;20040;-69
2021/07/22 06:54:17;;;;;;;16.65;12.88;;;18.10;99.90;;;;;;5013218;28;20049;-70
2021/07/22 06:56:43;;;;;;;21.55;12.82;;;18.20;99.90;;;;;;5013792;28;20128;-69
2021/07/22 06:59:08;;;;;;;18.92;11.52;;;18.10;99.90;;;;;;5013643;28;20108;-69
2021/07/22 07:01:34;;;;;;;16.27;12.30;;;18.00;99.90;;;;;;5013618;28;20108;-69
2021/07/22 07:04:00;;;;;;;16.02;12.13;;;18.20;99.90;;;;;;5013625;28;20022;-69
2021/07/22 07:06:25;;;;;;;20.00;12.43;;;18.60;99.90;;;;;;5015866;28;20078;-69
2021/07/22 07:08:51;;;;;;;20.10;12.55;;;18.70;99.90;;;;;;5017434;28;20101;-69
2021/07/22 07:11:17;;;;;;;19.35;12.25;;;18.60;99.90;;;;;;5017338;28;20030;-70
2021/07/22 07:13:42;;;;;;;15.07;11.60;;;18.60;99.90;;;;;;5014595;28;20029;-69
2021/07/22 07:16:08;;;;;;;19.58;11.68;;;18.80;99.90;;;;;;5013658;28;20033;-69
2021/07/22 07:18:34;;;;;;;14.68;10.95;;;19.00;99.90;;;;;;5014025;28;20489;-69
2021/07/22 07:21:06;;;;;;;16.70;10.85;;;19.20;99.90;;;;;;5013335;28;20103;-69
2021/07/22 07:23:32;;;;;;;15.65;11.40;;;19.40;99.90;;;;;;5014063;28;20107;-69
2021/07/22 07:25:59;;;;;;;13.20;10.63;;;19.60;99.90;;;;;;5013143;28;20045;-69
2021/07/22 07:28:25;;;;;;;16.20;10.93;;;19.90;99.90;;;;;;5010680;28;20026;-68
2021/07/22 07:30:51;;;;;;;15.40;10.90;;;20.00;99.90;;;;;;5011855;28;20104;-68
2021/07/22 07:33:17;;;;;;;20.23;10.63;;;20.00;99.90;;;;;;5013010;28;20043;-68
2021/07/22 07:35:43;;;;;;;14.88;10.35;;;20.10;99.90;;;;;;5012938;28;20022;-70
2021/07/22 07:38:08;;;;;;;11.65;9.80;;;20.10;99.90;;;;;;4995965;28;20034;-68
2021/07/22 07:40:35;;;;;;;10.65;9.55;;;20.00;99.90;;;;;;5013365;28;20022;-69
2021/07/22 07:43:00;;;;;;;15.15;10.15;;;20.10;99.90;;;;;;5013592;28;20057;-68
2021/07/22 07:45:26;;;;;;;12.70;10.10;;;20.20;99.90;;;;;;4995617;28;20050;-69
2021/07/22 07:47:53;;;;;;;14.50;9.65;;;20.40;99.90;;;;;;4996007;28;20036;-70
2021/07/22 07:50:19;;;;;;;15.32;9.90;;;20.70;99.90;;;;;;5003058;28;20102;-69
2021/07/22 07:52:45;;;;;;;13.07;9.43;;;20.60;99.90;;;;;;4994348;28;20038;-69
2021/07/22 07:55:12;;;;;;;19.60;9.98;;;20.70;99.90;;;;;;4994678;28;20085;-69
2021/07/22 07:57:38;;;;;;;10.98;9.18;;;20.80;99.90;;;;;;5007301;28;20019;-68
2021/07/22 08:00:06;;;;;;;17.73;9.07;;;21.20;99.90;;;;;;5005879;28;20148;-69
2021/07/22 08:02:32;;;;;;;9.85;8.23;;;21.10;99.90;;;;;;5010668;28;20036;-73
2021/07/22 08:04:57;;;;;;;13.77;8.23;;;21.30;99.90;;;;;;4998956;28;20022;-74
2021/07/22 08:07:24;;;;;;;11.85;7.80;;;21.40;99.90;;;;;;4993395;28;20421;-71
2021/07/22 08:09:50;;;;;;;11.07;8.30;;;21.80;99.90;;;;;;4994281;28;20429;-71
2021/07/22 08:12:16;;;;;;;11.25;8.27;;;22.00;99.90;;;;;;4996838;28;20481;-72
2021/07/22 08:14:43;;;;;;;13.95;8.15;;;22.30;99.90;;;;;;4993452;28;20109;-71
2021/07/22 08:17:14;;;;;;;11.02;8.68;;;22.30;99.90;;;;;;4993271;28;20112;-70
2021/07/22 08:19:40;;;;;;;9.57;7.82;;;22.30;99.90;;;;;;4992466;28;20125;-71
2021/07/22 08:22:05;;;;;;;12.32;8.55;;;22.50;99.90;;;;;;4992692;28;20101;-70
2021/07/22 08:24:31;;;;;;;15.45;8.88;;;22.50;99.90;;;;;;4991923;28;20545;-69
2021/07/22 08:26:57;;;;;;;12.32;8.48;;;22.70;99.90;;;;;;4992612;28;20501;-69
2021/07/22 08:29:22;;;;;;;11.45;9.23;;;22.80;99.90;;;;;;4992348;28;20076;-70
2021/07/22 08:31:48;;;;;;;11.25;8.43;;;23.10;99.90;;;;;;4992248;28;20033;-68
2021/07/22 08:34:16;;;;;;;11.60;8.32;;;23.20;99.90;;;;;;5001053;28;20112;-68
2021/07/22 08:36:42;;;;;;;11.88;7.25;;;23.30;99.90;;;;;;5011549;28;20208;-69
2021/07/22 08:39:08;;;;;;;8.48;7.07;;;23.30;99.90;;;;;;5012019;28;20049;-69
2021/07/22 08:41:34;;;;;;;10.80;7.57;;;23.50;99.90;;;;;;5005783;28;20144;-69
2021/07/22 08:44:02;;;;;;;9.52;7.68;;;23.80;99.90;;;;;;4992350;28;20117;-69
2021/07/22 08:46:28;;;;;;;8.45;7.05;;;23.80;99.90;;;;;;4991557;28;20065;-69
2021/07/22 08:48:56;;;;;;;9.88;7.22;;;23.90;99.90;;;;;;4992397;28;20025;-68
2021/07/22 08:51:25;;;;;;;11.10;7.72;;;24.10;99.90;;;;;;4974544;28;20109;-68
2021/07/22 08:53:51;;;;;;;10.82;7.07;;;24.30;99.90;;;;;;4992121;28;20062;-70
2021/07/22 08:56:17;;;;;;;9.48;7.32;;;24.40;99.90;;;;;;4991597;28;20026;-69
2021/07/22 08:58:43;;;;;;;15.52;7.97;;;24.50;99.90;;;;;;4991885;28;20034;-68
2021/07/22 09:01:14;;;;;;;8.20;7.43;;;24.60;99.90;;;;;;4991861;28;20093;-70
2021/07/22 09:03:40;;;;;;;11.80;7.30;;;25.00;99.90;;;;;;4991872;28;20037;-70
2021/07/22 09:06:14;;;;;;;7.93;7.10;;;25.80;99.90;;;;;;4991125;28;20027;-68
2021/07/22 09:08:39;;;;;;;10.32;6.97;;;25.80;99.90;;;;;;4991883;28;20018;-68
2021/07/22 09:11:06;;;;;;;8.07;6.10;;;25.80;99.90;;;;;;4991888;28;20077;-69
2021/07/22 09:13:32;;;;;;;7.18;6.00;;;26.40;99.90;;;;;;4992123;28;20505;-69
2021/07/22 09:15:58;;;;;;;8.90;6.75;;;27.40;99.90;;;;;;4991662;28;20106;-69
2021/07/22 09:18:26;;;;;;;9.60;6.75;;;26.20;99.50;;;;;;4992172;28;20030;-69
2021/07/22 09:20:53;;;;;;;7.97;6.32;;;26.80;99.90;;;;;;4991929;28;20073;-69
2021/07/22 09:23:27;;;;;;;8.85;6.25;;;27.40;99.00;;;;;;4992179;28;20034;-69
2021/07/22 09:25:54;;;;;;;10.15;6.43;;;29.00;96.20;;;;;;4993734;28;20057;-69
2021/07/22 09:28:25;;;;;;;14.20;6.22;;;28.10;95.90;;;;;;5007288;28;20346;-68
2021/07/22 09:30:58;;;;;;;9.80;6.25;;;28.00;95.90;;;;;;5011722;28;20105;-68
2021/07/22 09:33:41;;;;;;;8.23;6.65;;;27.90;97.20;;;;;;5001948;28;20080;-68
2021/07/22 09:36:32;;;;;;;8.32;6.13;;;28.80;94.60;;;;;;4990613;28;20046;-69
2021/07/22 09:39:21;;;;;;;15.93;6.95;;;29.00;93.10;;;;;;4983689;28;20038;-68
2021/07/22 09:42:00;;;;;;;11.13;6.45;;;29.10;94.20;;;;;;4991746;28;20033;-69
2021/07/22 09:44:40;;;;;;;8.75;6.68;;;28.80;92.10;;;;;;4997730;28;20045;-69
2021/07/22 09:47:08;;;;;;;11.57;7.30;;;27.90;91.70;;;;;;5011260;28;20064;-67
2021/07/22 09:49:42;;;;;;;8.10;6.65;;;27.80;92.30;;;;;;5005852;28;20046;-68
2021/07/22 09:52:23;;;;;;;7.63;5.80;;;27.70;93.30;;;;;;4991483;28;20535;-69
2021/07/22 09:54:49;;;;;;;6.85;6.15;;;27.40;92.50;;;;;;4990679;28;20058;-70
2021/07/22 09:57:17;;;;;;;9.10;6.22;;;28.00;92.20;;;;;;5024098;23;20085;-69
2021/07/22 09:59:44;;;;;;;7.32;6.47;;;27.80;92.30;;;;;;5008110;28;20368;-69
2021/07/22 10:02:22;;;;;;;8.73;6.35;;;28.40;93.20;;;;;;5012943;28;20053;-69
2021/07/22 10:04:56;;;;;;;7.30;6.47;;;29.50;92.10;;;;;;5012044;28;20028;-69
2021/07/22 10:07:22;;;;;;;9.98;6.22;;;30.70;88.20;;;;;;4997121;28;20054;-69
2021/07/22 10:09:54;;;;;;;7.07;6.38;;;30.60;86.70;;;;;;4991812;28;20108;-69
2021/07/22 10:12:21;;;;;;;7.43;6.18;;;30.60;85.30;;;;;;4992337;28;20061;-69
2021/07/22 10:14:53;;;;;;;10.32;6.47;;;30.00;90.00;;;;;;4993043;28;20037;-66
2021/07/22 10:17:20;;;;;;;7.40;6.70;;;29.40;90.40;;;;;;4995075;28;20476;-66
2021/07/22 10:19:46;;;;;;;7.47;6.85;;;30.20;90.00;;;;;;4995544;28;20069;-67
2021/07/22 10:22:13;;;;;;;8.35;7.07;;;30.30;89.20;;;;;;4961359;28;20027;-66
2021/07/22 10:24:40;;;;;;;7.13;6.43;;;29.90;85.00;;;;;;4975449;28;20081;-67
2021/07/22 10:27:07;;;;;;;7.72;7.03;;;29.90;90.10;;;;;;4975493;28;20481;-66
2021/07/22 10:29:34;;;;;;;9.93;7.03;;;29.80;86.20;;;;;;4975919;28;20027;-66
2021/07/22 10:32:01;;;;;;;7.88;7.20;;;29.70;86.20;;;;;;4975653;28;20045;-67
2021/07/22 10:34:28;;;;;;;8.38;6.63;;;29.80;87.40;;;;;;4975579;28;20040;-67
2021/07/22 10:36:54;;;;;;;9.95;7.22;;;30.10;87.60;;;;;;4975789;28;20081;-66
2021/07/22 10:39:58;;;;;;;8.45;6.82;;;30.00;84.40;;;;;;4988031;28;20133;-66
2021/07/22 10:42:49;;;;;;;11.25;7.65;;;29.80;82.40;;;;;;4975459;28;20031;-66
2021/07/22 10:45:18;;;;;;;;;;;30.30;85.10;;;;;;4988916;28;20105;-66
2021/07/22 10:47:58;;;;;;;7.97;7.18;;;30.50;87.20;;;;;;4995388;28;20612;-66
2021/07/22 10:50:43;;;;;;;12.32;7.65;;;30.80;85.60;;;;;;4995002;28;20050;-65
2021/07/22 10:53:09;;;;;;;9.95;7.00;;;29.80;84.50;;;;;;4995692;28;20030;-65
2021/07/22 10:55:46;;;;;;;9.70;7.82;;;28.90;89.70;;;;;;4995370;28;20368;-66
2021/07/22 10:58:24;;;;;;;11.43;7.40;;;29.10;88.90;;;;;;4975155;28;20042;-66
2021/07/22 11:00:51;;;;;;;8.90;6.97;;;30.00;88.60;;;;;;4975000;28;20081;-66
2021/07/22 11:03:35;;;;;;;8.25;7.45;;;30.50;88.40;;;;;;4975325;28;20034;-67
2021/07/22 11:06:04;;;;;;;10.43;7.95;;;31.40;88.60;;;;;;4974402;28;20508;-66
2021/07/22 11:08:32;;;;;;;8.75;7.85;;;31.40;83.60;;;;;;4974745;28;20030;-67
2021/07/22 11:11:06;;;;;;;8.18;7.35;;;31.70;82.20;;;;;;4994426;28;20176;-67
2021/07/22 11:13:38;;;;;;;8.30;7.50;;;31.70;81.90;;;;;;4994653;28;20429;-67
2021/07/22 11:16:11;;;;;;;9.50;7.53;;;31.90;81.80;;;;;;4993789;28;20130;-67
2021/07/22 11:18:39;;;;;;;10.77;6.35;;;32.40;82.20;;;;;;4993745;28;20464;-67
2021/07/22 11:21:06;;;;;;;9.05;7.38;;;32.60;81.00;;;;;;4994355;28;20457;-67
2021/07/22 11:23:32;;;;;;;8.23;7.43;;;31.70;82.80;;;;;;4994346;28;20022;-67
2021/07/22 11:25:58;;;;;;;9.00;7.50;;;31.20;84.40;;;;;;4993334;28;20469;-67
2021/07/22 11:28:26;;;;;;;10.43;8.23;;;31.20;84.00;;;;;;4993182;28;20050;-67
2021/07/22 11:31:21;;;;;;;14.15;8.45;;;31.40;82.00;;;;;;4993853;28;20037;-67
2021/07/22 11:33:47;;;;;;;9.57;7.93;;;31.60;82.10;;;;;;4984937;28;20113;-68
2021/07/22 11:36:15;;;;;;;12.00;7.32;;;32.00;84.30;;;;;;4993011;28;20034;-68
2021/07/22 11:38:41;;;;;;;7.95;7.15;;;32.30;79.60;;;;;;4992341;28;20018;-67
2021/07/22 11:41:13;;;;;;;10.05;7.78;;;32.20;81.00;;;;;;4973919;28;20608;-67
2021/07/22 11:43:43;;;;;;;10.23;8.00;;;31.90;79.10;;;;;;4979526;28;20027;-67
2021/07/22 11:46:11;;;;;;;9.05;6.72;;;31.60;81.70;;;;;;4973353;28;20023;-67
2021/07/22 11:48:38;;;;;;;8.63;7.78;;;31.10;81.70;;;;;;4985829;28;20018;-68
2021/07/22 11:51:12;;;;;;;11.20;8.13;;;31.50;80.80;;;;;;4992349;28;20033;-68
2021/07/22 11:53:39;;;;;;;8.70;7.80;;;32.00;79.70;;;;;;4993271;28;20054;-67
2021/07/22 11:56:16;;;;;;;9.43;7.57;;;32.50;78.70;;;;;;4992620;28;20034;-68
2021/07/22 11:58:51;;;;;;;9.77;7.25;;;32.70;79.20;;;;;;4992551;28;20488;-68
2021/07/22 12:01:18;;;;;;;14.15;7.82;;;32.70;79.80;;;;;;4989244;28;20022;-68
2021/07/22 12:03:47;;;;;;;10.98;7.63;;;32.40;80.30;;;;;;4982988;28;20421;-69
2021/07/22 12:06:26;;;;;;;8.95;8.05;;;33.20;79.90;;;;;;4955304;28;20027;-67
2021/07/22 12:09:09;;;;;;;12.80;8.30;;;33.00;75.60;;;;;;4992800;28;20045;-67
2021/07/22 12:11:50;;;;;;;10.23;8.20;;;32.60;74.70;;;;;;4991255;28;20037;-66
2021/07/22 12:14:27;;;;;;;10.63;8.05;;;32.30;76.60;;;;;;4974599;28;20041;-67
2021/07/22 12:17:02;;;;;;;9.35;8.23;;;32.20;79.20;;;;;;4975033;28;20578;-65
2021/07/22 12:19:29;;;;;;;12.15;9.13;;;32.70;74.40;;;;;;4992336;28;20076;-66
2021/07/22 12:22:33;;;;;;;10.70;7.93;;;32.60;76.70;;;;;;4992319;28;20068;-66
2021/07/22 12:25:12;;;;;;;14.10;8.57;;;32.20;76.10;;;;;;4947977;28;20038;-67
2021/07/22 12:27:44;;;;;;;16.13;8.77;;;33.10;75.60;;;;;;4991466;28;20085;-67
2021/07/22 12:30:13;;;;;;;15.45;8.52;;;33.20;73.80;;;;;;4992236;28;20026;-67
2021/07/22 12:32:57;;;;;;;10.93;8.30;;;33.00;75.60;;;;;;4992474;28;20026;-67
2021/07/22 12:35:41;;;;;;;9.98;8.07;;;33.30;74.20;;;;;;4991713;28;20436;-68
2021/07/22 12:38:22;;;;;;;11.18;8.77;;;33.20;74.00;;;;;;4991941;28;20101;-68